Time;durP1;ratioP1;P1;durP2;ratioP2;P2;SDS_P1;SDS_P2;PMS_P1;PMS_P2;Temp;Humidity;BMP_temperature;BMP_pressure;BME280_temperature;BME280_humidity;BME280_pressure;Samples;Min_cycle;Max_cycle;Signal;HPM_P1;HPM_P2
2022/01/14 00:02:14;;;;;;;39.45;22.20;;;5.40;99.90;;;;;;5090983;28;20409;-77
2022/01/14 00:04:40;;;;;;;39.55;23.15;;;5.30;99.90;;;;;;5073746;28;20048;-78
2022/01/14 00:07:06;;;;;;;37.88;20.23;;;5.40;99.90;;;;;;5073033;28;20040;-80
2022/01/14 00:09:34;;;;;;;41.92;21.02;;;5.40;99.90;;;;;;5089703;28;20047;-80
2022/01/14 00:12:03;;;;;;;40.38;23.30;;;5.40;99.90;;;;;;5090735;28;20043;-79
2022/01/14 00:14:41;;;;;;;36.80;21.73;;;5.30;99.90;;;;;;5072206;28;20040;-80
2022/01/14 00:17:16;;;;;;;41.40;21.17;;;5.30;99.90;;;;;;5090456;28;20044;-80
2022/01/14 00:19:43;;;;;;;35.85;21.83;;;5.40;99.90;;;;;;5090672;28;20036;-81
2022/01/14 00:22:14;;;;;;;44.72;22.30;;;5.40;99.90;;;;;;5072419;28;20236;-81
2022/01/14 00:35:26;;;;;;;31.92;20.20;;;5.30;99.90;;;;;;5089800;28;20194;-80
2022/01/14 00:37:52;;;;;;;45.17;22.10;;;5.40;99.90;;;;;;5071789;28;20118;-81
2022/01/14 00:40:17;;;;;;;41.83;19.30;;;5.40;99.90;;;;;;5088345;28;20125;-79
2022/01/14 00:42:43;;;;;;;44.97;22.02;;;5.30;99.90;;;;;;5089571;28;20039;-79
2022/01/14 00:45:11;;;;;;;36.40;19.63;;;5.30;99.90;;;;;;5089708;28;20173;-79
2022/01/14 00:47:37;;;;;;;40.72;20.88;;;5.30;99.90;;;;;;5089324;28;20058;-80
2022/01/14 00:50:09;;;;;;;35.17;18.98;;;5.30;99.90;;;;;;5089742;28;20624;-80
2022/01/14 00:52:36;;;;;;;29.08;18.92;;;5.40;99.90;;;;;;5071072;28;20032;-80
2022/01/14 00:55:03;;;;;;;41.83;21.70;;;5.30;99.90;;;;;;5088996;28;20131;-80
2022/01/14 00:59:14;;;;;;;37.15;21.42;;;5.30;99.90;;;;;;5089184;28;20519;-81
2022/01/14 01:00:16;;;;;;;36.55;21.17;;;5.40;99.90;;;;;;5071084;28;20128;-79
2022/01/14 01:02:42;;;;;;;40.97;22.40;;;5.30;99.90;;;;;;5072169;28;20428;-81
2022/01/14 01:05:08;;;;;;;40.92;21.02;;;5.30;99.90;;;;;;5089543;28;20040;-80
2022/01/14 01:07:34;;;;;;;48.72;22.38;;;5.30;99.90;;;;;;5091323;28;20055;-81
2022/01/14 01:09:59;;;;;;;38.42;21.63;;;5.30;99.90;;;;;;5070536;28;20410;-78
2022/01/14 01:12:42;;;;;;;38.55;20.08;;;5.30;99.90;;;;;;5089092;28;20044;-79
2022/01/14 01:15:12;;;;;;;44.28;23.33;;;5.30;99.90;;;;;;5089321;28;20063;-80
2022/01/14 01:17:38;;;;;;;41.38;21.63;;;5.20;99.90;;;;;;5088807;28;20040;-79
2022/01/14 01:20:18;;;;;;;34.95;20.55;;;5.20;99.90;;;;;;5089047;28;20051;-81
2022/01/14 01:22:46;;;;;;;52.60;22.25;;;5.30;99.90;;;;;;5089143;28;20055;-76
2022/01/14 01:25:13;;;;;;;38.40;21.38;;;5.30;99.90;;;;;;5088590;28;20044;-79
2022/01/14 01:27:41;;;;;;;33.08;19.92;;;5.30;99.90;;;;;;5089236;28;20048;-80
2022/01/14 01:32:54;;;;;;;41.70;22.10;;;5.40;99.90;;;;;;5070506;28;20087;-80
2022/01/14 01:35:20;;;;;;;32.20;18.95;;;5.40;99.90;;;;;;5053709;28;20075;-78
2022/01/14 01:37:45;;;;;;;36.00;21.38;;;5.50;99.90;;;;;;5070539;28;20520;-80
2022/01/14 01:40:14;;;;;;;37.13;18.77;;;5.50;99.90;;;;;;5088112;28;20201;-80
2022/01/14 01:42:42;;;;;;;52.08;23.13;;;5.40;99.90;;;;;;5070917;28;20091;-81
2022/01/14 01:45:11;;;;;;;42.28;20.38;;;5.50;99.90;;;;;;5070335;28;20091;-80
2022/01/14 01:47:38;;;;;;;40.63;19.33;;;5.50;99.90;;;;;;5070328;28;20526;-81
2022/01/14 01:50:15;;;;;;;48.05;21.08;;;5.50;99.90;;;;;;5088801;28;20036;-80
2022/01/14 01:52:41;;;;;;;36.30;18.75;;;5.50;99.90;;;;;;5070508;28;20044;-80
2022/01/14 01:55:08;;;;;;;38.47;20.23;;;5.60;99.90;;;;;;5069151;28;20032;-80
2022/01/14 01:57:35;;;;;;;37.40;18.35;;;5.60;99.90;;;;;;5069992;28;20238;-80
2022/01/14 02:00:03;;;;;;;42.35;20.88;;;5.60;99.90;;;;;;5088545;28;20047;-80
2022/01/14 02:02:29;;;;;;;31.38;19.33;;;5.60;99.90;;;;;;5087996;28;20071;-80
2022/01/14 02:04:56;;;;;;;60.88;22.98;;;5.60;99.90;;;;;;5088188;28;20075;-79
2022/01/14 02:07:21;;;;;;;30.75;19.25;;;5.60;99.90;;;;;;5069910;28;20436;-79
2022/01/14 02:09:47;;;;;;;42.17;21.70;;;5.60;99.90;;;;;;5052432;28;20043;-80
2022/01/14 02:12:12;;;;;;;53.42;21.13;;;5.60;99.90;;;;;;5088644;28;20048;-80
2022/01/14 02:22:09;;;;;;;47.92;22.15;;;5.60;99.90;;;;;;5087841;28;20593;-80
2022/01/14 02:22:50;;;;;;;40.00;18.45;;;5.60;99.90;;;;;;5070898;28;20500;-80
2022/01/14 02:25:27;;;;;;;42.78;20.58;;;5.60;99.90;;;;;;5087592;28;20040;-80
2022/01/14 02:27:54;;;;;;;42.33;19.38;;;5.60;99.90;;;;;;5088067;28;20036;-79
2022/01/14 02:30:20;;;;;;;39.00;19.60;;;5.60;99.90;;;;;;5069549;28;20539;-80
2022/01/14 02:32:45;;;;;;;44.00;19.88;;;5.60;99.90;;;;;;5088004;28;20044;-79
2022/01/14 02:35:11;;;;;;;39.17;18.80;;;5.70;99.90;;;;;;5088556;28;20047;-79
2022/01/14 02:37:36;;;;;;;73.72;19.15;;;5.60;99.90;;;;;;5087441;28;20529;-79
2022/01/14 02:40:03;;;;;;;43.65;20.10;;;5.60;99.90;;;;;;5087056;28;20479;-80
2022/01/14 02:42:28;;;;;;;38.20;18.80;;;5.60;99.90;;;;;;5087613;28;20048;-79
2022/01/14 02:45:00;;;;;;;38.63;18.02;;;5.60;99.90;;;;;;5069539;28;20123;-79
2022/01/14 02:47:26;;;;;;;44.65;19.23;;;5.70;99.90;;;;;;5087587;28;20051;-79
2022/01/14 02:49:53;;;;;;;49.95;21.55;;;5.70;99.90;;;;;;5069683;28;20489;-80
2022/01/14 02:52:28;;;;;;;45.40;19.23;;;5.70;99.90;;;;;;5087354;28;20239;-78
2022/01/14 02:55:14;;;;;;;41.67;19.88;;;5.70;99.90;;;;;;5068554;28;20048;-79
2022/01/14 02:57:42;;;;;;;61.58;20.00;;;5.80;99.90;;;;;;5069801;28;20044;-79
2022/01/14 03:00:08;;;;;;;42.47;20.23;;;5.70;99.90;;;;;;5087597;28;20047;-80
2022/01/14 03:02:36;;;;;;;40.05;21.38;;;5.80;99.90;;;;;;5069027;28;20051;-81
2022/01/14 03:05:03;;;;;;;35.78;20.35;;;5.70;99.90;;;;;;5068975;28;20078;-81
2022/01/14 03:07:28;;;;;;;44.85;20.50;;;5.80;99.90;;;;;;5069281;28;20083;-79
2022/01/14 03:09:54;;;;;;;47.47;20.88;;;5.80;99.90;;;;;;5086617;28;20645;-80
2022/01/14 03:12:20;;;;;;;38.13;19.35;;;5.80;99.90;;;;;;5087212;28;20044;-80
2022/01/14 03:14:46;;;;;;;36.47;20.75;;;5.80;99.90;;;;;;5087337;28;20028;-79
2022/01/14 03:17:12;;;;;;;44.13;21.08;;;5.80;99.90;;;;;;5087520;28;20522;-80
2022/01/14 03:19:37;;;;;;;41.35;19.70;;;5.80;99.90;;;;;;5069094;28;20052;-79
2022/01/14 03:22:07;;;;;;;50.53;23.08;;;5.80;99.90;;;;;;5087361;28;20052;-79
2022/01/14 03:27:03;;;;;;;33.63;18.03;;;6.00;99.90;;;;;;5069267;28;20099;-80
2022/01/14 03:29:29;;;;;;;43.83;19.63;;;5.90;99.90;;;;;;5069180;28;20048;-80
2022/01/14 03:31:55;;;;;;;72.38;20.23;;;6.00;99.90;;;;;;5087273;28;20059;-80
2022/01/14 03:34:20;;;;;;;43.30;20.13;;;6.00;99.90;;;;;;5087057;28;20037;-80
2022/01/14 03:36:46;;;;;;;35.42;18.77;;;6.00;99.90;;;;;;5069493;28;20482;-80
2022/01/14 03:39:12;;;;;;;33.83;19.00;;;6.00;99.90;;;;;;5086345;28;20127;-79
2022/01/14 03:41:37;;;;;;;34.20;18.33;;;6.00;99.90;;;;;;5086773;28;20040;-79
2022/01/14 03:44:04;;;;;;;40.85;20.05;;;6.00;99.90;;;;;;5087167;28;20067;-79
2022/01/14 03:46:30;;;;;;;41.60;19.60;;;6.00;99.90;;;;;;5086880;28;20052;-80
2022/01/14 03:48:55;;;;;;;31.42;18.13;;;6.00;99.90;;;;;;5087223;28;20576;-81
2022/01/14 03:51:23;;;;;;;39.97;19.08;;;6.00;99.90;;;;;;5068649;28;20052;-80
2022/01/14 03:53:49;;;;;;;44.13;20.27;;;6.00;99.90;;;;;;5067944;28;20102;-79
2022/01/14 03:56:15;;;;;;;42.58;19.42;;;6.00;99.90;;;;;;5086677;28;20044;-79
2022/01/14 03:58:42;;;;;;;43.63;20.75;;;6.00;99.90;;;;;;5069267;28;20044;-80
2022/01/14 04:01:09;;;;;;;34.47;19.30;;;6.00;99.90;;;;;;5087078;28;20094;-79
2022/01/14 04:03:34;;;;;;;35.13;19.00;;;6.00;99.90;;;;;;5068562;28;20252;-80
2022/01/14 04:06:00;;;;;;;30.08;18.27;;;6.00;99.90;;;;;;5086861;28;20044;-79
2022/01/14 04:08:25;;;;;;;30.52;19.23;;;6.10;99.90;;;;;;5085688;28;20127;-79
2022/01/14 04:10:53;;;;;;;35.20;18.73;;;6.00;99.90;;;;;;5068622;28;20486;-79
2022/01/14 04:13:24;;;;;;;32.17;18.55;;;6.00;99.90;;;;;;5086694;28;20036;-80
2022/01/14 04:15:51;;;;;;;46.00;18.23;;;6.00;99.90;;;;;;5069359;28;20094;-78
2022/01/14 04:18:19;;;;;;;40.15;18.27;;;6.00;99.90;;;;;;5090049;28;20438;-80
2022/01/14 04:20:50;;;;;;;35.95;18.77;;;6.00;99.90;;;;;;5090516;28;20131;-79
2022/01/14 04:23:19;;;;;;;49.47;19.25;;;6.00;99.90;;;;;;5088936;28;20446;-79
2022/01/14 04:25:47;;;;;;;31.23;17.60;;;6.00;99.90;;;;;;5090573;28;20036;-80
2022/01/14 04:28:14;;;;;;;32.38;19.65;;;6.00;99.90;;;;;;5090495;28;20174;-81
2022/01/14 04:30:40;;;;;;;33.63;20.98;;;6.00;99.90;;;;;;5090367;28;20486;-79
2022/01/14 04:33:05;;;;;;;39.88;20.90;;;6.00;99.90;;;;;;5089897;28;20044;-79
2022/01/14 04:35:32;;;;;;;38.92;20.70;;;6.00;99.90;;;;;;5089621;28;20118;-79
2022/01/14 04:37:59;;;;;;;36.22;20.73;;;5.90;99.90;;;;;;5071005;28;20472;-79
2022/01/14 04:40:25;;;;;;;50.85;21.20;;;6.00;99.90;;;;;;5089881;28;20393;-81
2022/01/14 04:42:52;;;;;;;40.28;20.25;;;5.90;99.90;;;;;;5090021;28;20071;-81
2022/01/14 04:47:54;;;;;;;38.67;19.83;;;5.80;99.90;;;;;;5089843;28;20112;-80
2022/01/14 04:50:21;;;;;;;41.00;21.48;;;5.80;99.90;;;;;;5090152;28;20087;-79
2022/01/14 04:52:47;;;;;;;29.10;18.92;;;5.80;99.90;;;;;;5073695;28;20440;-80
2022/01/14 04:55:15;;;;;;;37.20;21.55;;;5.70;99.90;;;;;;5072763;28;20028;-81
2022/01/14 04:57:42;;;;;;;47.25;22.02;;;5.70;99.90;;;;;;5089859;28;20047;-80
2022/01/14 05:00:13;;;;;;;35.13;20.83;;;5.70;99.90;;;;;;5089613;28;20065;-79
2022/01/14 05:02:40;;;;;;;54.17;22.90;;;5.70;99.90;;;;;;5089657;28;20043;-79
2022/01/14 05:05:07;;;;;;;44.67;22.60;;;5.70;99.90;;;;;;5089650;28;20040;-79
2022/01/14 05:07:33;;;;;;;50.50;21.30;;;5.70;99.90;;;;;;5088010;28;20051;-81
2022/01/14 05:12:28;;;;;;;50.75;18.90;;;5.70;99.90;;;;;;5071362;28;20055;-78
2022/01/14 05:14:54;;;;;;;36.90;20.10;;;5.70;99.90;;;;;;5071194;28;20044;-80
2022/01/14 05:17:19;;;;;;;36.97;19.63;;;5.70;99.90;;;;;;5088885;28;20402;-80
2022/01/14 05:19:46;;;;;;;40.58;21.60;;;5.60;99.90;;;;;;5054391;28;20375;-80
2022/01/14 05:22:11;;;;;;;34.13;19.88;;;5.60;99.90;;;;;;5089587;28;20048;-80
2022/01/14 05:24:37;;;;;;;46.20;22.38;;;5.70;99.90;;;;;;5053567;28;20048;-80
2022/01/14 05:27:03;;;;;;;38.70;21.70;;;5.70;99.90;;;;;;5088957;28;21065;-80
2022/01/14 05:29:28;;;;;;;38.22;19.08;;;5.70;99.90;;;;;;5072007;28;20245;-81
2022/01/14 05:32:02;;;;;;;43.03;20.75;;;5.60;99.90;;;;;;5072727;28;20101;-80
2022/01/14 05:34:29;;;;;;;35.17;21.08;;;5.70;99.90;;;;;;5091286;28;20044;-80
2022/01/14 05:36:54;;;;;;;37.70;23.20;;;5.60;99.90;;;;;;5089549;28;20051;-80
2022/01/14 05:39:20;;;;;;;35.95;20.10;;;5.70;99.90;;;;;;5089778;28;20119;-80
2022/01/14 05:41:50;;;;;;;39.97;20.80;;;5.70;99.90;;;;;;5091240;28;20044;-81
2022/01/14 05:44:15;;;;;;;33.38;22.05;;;5.70;99.90;;;;;;5090513;28;20048;-80
2022/01/14 05:46:41;;;;;;;41.30;22.10;;;5.70;99.90;;;;;;5090817;28;20051;-81
2022/01/14 05:49:06;;;;;;;52.83;22.08;;;5.70;99.90;;;;;;5089100;28;20331;-80
2022/01/14 05:51:32;;;;;;;41.05;21.33;;;5.70;99.90;;;;;;5088438;28;20094;-81
2022/01/14 05:53:58;;;;;;;28.40;18.60;;;5.70;99.90;;;;;;5087989;28;20111;-81
2022/01/14 05:56:24;;;;;;;32.45;19.15;;;5.70;99.90;;;;;;5069941;28;20487;-78
2022/01/14 05:58:49;;;;;;;45.65;21.52;;;5.70;99.90;;;;;;5088250;28;20118;-79
2022/01/14 06:01:15;;;;;;;48.65;21.55;;;5.80;99.90;;;;;;5069598;28;20402;-79
2022/01/14 06:03:41;;;;;;;37.20;21.70;;;5.80;99.90;;;;;;5088452;28;20087;-79
2022/01/14 06:06:06;;;;;;;35.75;19.45;;;5.80;99.90;;;;;;5088330;28;20051;-79
2022/01/14 06:08:32;;;;;;;41.88;20.20;;;5.80;99.90;;;;;;5087104;28;20061;-80
2022/01/14 06:10:58;;;;;;;31.92;18.60;;;5.80;99.90;;;;;;5069889;28;20311;-79
2022/01/14 06:13:23;;;;;;;31.75;19.05;;;5.80;99.90;;;;;;5087791;28;20044;-80
2022/01/14 06:15:49;;;;;;;32.05;17.48;;;5.80;99.90;;;;;;5088230;28;20406;-78
2022/01/14 06:18:15;;;;;;;31.33;18.23;;;5.90;99.90;;;;;;5087543;28;20471;-78
2022/01/14 06:20:41;;;;;;;44.80;21.38;;;5.80;99.90;;;;;;5088190;28;20496;-78
2022/01/14 06:23:06;;;;;;;64.22;21.05;;;5.90;99.90;;;;;;5068859;28;20478;-79
2022/01/14 06:25:32;;;;;;;30.80;17.10;;;5.90;99.90;;;;;;5069546;28;20486;-79
2022/01/14 06:27:57;;;;;;;42.53;17.38;;;5.90;99.90;;;;;;5087920;28;20081;-78
2022/01/14 06:30:23;;;;;;;40.75;18.02;;;6.00;99.90;;;;;;5087395;28;20133;-79
2022/01/14 06:32:56;;;;;;;24.02;15.75;;;6.00;99.90;;;;;;5087767;28;20431;-79
2022/01/14 06:35:22;;;;;;;38.88;16.67;;;6.00;99.90;;;;;;5087615;28;20040;-80
2022/01/14 06:37:48;;;;;;;26.60;16.25;;;6.00;99.90;;;;;;5086659;28;20097;-81
2022/01/14 06:40:15;;;;;;;31.30;17.30;;;6.00;99.90;;;;;;5052018;28;20131;-79
2022/01/14 06:42:40;;;;;;;26.67;15.73;;;6.00;99.90;;;;;;5088235;28;20032;-80
2022/01/14 06:45:07;;;;;;;54.42;18.58;;;6.00;99.90;;;;;;5069428;28;20401;-80
2022/01/14 06:47:33;;;;;;;43.03;16.38;;;6.00;99.90;;;;;;5069105;28;20087;-80
2022/01/14 06:49:59;;;;;;;30.70;16.38;;;6.00;99.90;;;;;;5087801;28;20083;-79
2022/01/14 06:52:24;;;;;;;30.17;15.60;;;6.00;99.90;;;;;;5086340;28;20063;-79
2022/01/14 06:54:50;;;;;;;42.80;18.50;;;6.00;99.90;;;;;;5069704;28;20044;-80
2022/01/14 06:57:16;;;;;;;36.45;16.98;;;6.00;99.90;;;;;;5086918;28;20047;-79
2022/01/14 06:59:42;;;;;;;28.30;16.50;;;6.00;99.90;;;;;;5087893;28;20040;-81
2022/01/14 07:02:09;;;;;;;29.08;14.80;;;6.00;99.90;;;;;;5087513;28;20059;-79
2022/01/14 07:04:36;;;;;;;31.75;15.35;;;6.00;99.90;;;;;;5087325;28;20074;-79
2022/01/14 07:07:01;;;;;;;30.60;15.98;;;6.00;99.90;;;;;;5087448;28;20107;-79
2022/01/14 07:09:29;;;;;;;34.30;15.43;;;6.00;99.90;;;;;;5068068;28;20143;-76
2022/01/14 07:11:57;;;;;;;31.27;17.13;;;6.00;99.90;;;;;;5087004;28;20048;-79
2022/01/14 07:14:24;;;;;;;48.30;15.27;;;6.00;99.90;;;;;;5087731;28;20048;-80
2022/01/14 07:16:49;;;;;;;32.03;15.60;;;6.00;99.90;;;;;;5069088;28;20047;-79
2022/01/14 07:19:17;;;;;;;31.73;16.40;;;6.00;99.90;;;;;;5087149;28;20066;-78
2022/01/14 07:21:43;;;;;;;25.45;14.80;;;6.00;99.90;;;;;;5087660;28;20040;-79
2022/01/14 07:24:10;;;;;;;47.65;17.52;;;6.10;99.90;;;;;;5069378;28;20044;-78
2022/01/14 07:26:36;;;;;;;26.98;13.55;;;6.00;99.90;;;;;;5068759;28;20066;-79
2022/01/14 07:29:01;;;;;;;22.95;13.35;;;6.00;99.90;;;;;;5087248;28;20088;-78
2022/01/14 07:31:27;;;;;;;47.13;15.55;;;6.00;99.90;;;;;;5086815;28;20197;-79
2022/01/14 07:33:53;;;;;;;30.13;12.95;;;6.10;99.90;;;;;;5068776;28;20059;-78
2022/01/14 07:36:18;;;;;;;22.55;12.98;;;6.00;99.90;;;;;;5087038;28;20040;-79
2022/01/14 07:38:44;;;;;;;28.48;14.05;;;6.00;99.90;;;;;;5086082;28;20032;-79
2022/01/14 07:41:09;;;;;;;23.50;13.38;;;6.00;99.90;;;;;;5087087;28;20140;-79
2022/01/14 07:43:36;;;;;;;27.02;13.30;;;6.00;99.90;;;;;;5086755;28;20086;-80
2022/01/14 07:46:03;;;;;;;27.15;13.20;;;6.00;99.90;;;;;;5052482;28;20302;-79
2022/01/14 07:48:28;;;;;;;25.67;12.45;;;6.10;99.90;;;;;;5086592;28;20050;-78
2022/01/14 07:50:54;;;;;;;24.15;11.50;;;6.10;99.90;;;;;;5089117;28;20498;-78
2022/01/14 07:53:20;;;;;;;24.98;12.20;;;6.00;99.90;;;;;;5089584;28;20505;-77
2022/01/14 07:55:46;;;;;;;22.42;11.43;;;6.10;99.90;;;;;;5090554;28;20047;-77
2022/01/14 07:58:12;;;;;;;25.02;11.45;;;6.10;99.90;;;;;;5090773;28;20058;-78
2022/01/14 08:00:39;;;;;;;18.92;10.23;;;6.10;99.90;;;;;;5090511;28;20583;-78
2022/01/14 08:03:05;;;;;;;51.47;11.63;;;6.10;99.90;;;;;;5090369;28;20047;-78
2022/01/14 08:05:31;;;;;;;21.55;10.45;;;6.10;99.90;;;;;;5072099;28;20040;-78
2022/01/14 08:07:58;;;;;;;27.00;12.45;;;6.10;99.90;;;;;;5089221;28;20081;-80
2022/01/14 08:10:24;;;;;;;32.08;12.43;;;6.10;99.90;;;;;;5071739;28;20052;-79
2022/01/14 08:12:50;;;;;;;35.38;11.95;;;6.10;99.90;;;;;;5090210;28;20123;-79
2022/01/14 08:15:15;;;;;;;31.27;11.80;;;6.10;99.90;;;;;;5090145;28;20044;-78
2022/01/14 08:17:41;;;;;;;20.88;9.80;;;6.10;99.90;;;;;;5072355;28;20534;-78
2022/01/14 08:20:07;;;;;;;33.42;11.45;;;6.20;99.90;;;;;;5090042;28;20401;-79
2022/01/14 08:22:34;;;;;;;25.95;12.20;;;6.10;99.90;;;;;;5088952;28;20134;-78
2022/01/14 08:25:00;;;;;;;20.10;9.93;;;6.20;99.90;;;;;;5090246;28;20040;-79
2022/01/14 08:27:28;;;;;;;19.63;9.02;;;6.20;99.90;;;;;;5071746;28;20075;-79
2022/01/14 08:29:55;;;;;;;21.30;10.18;;;6.20;99.90;;;;;;5089987;28;20088;-79
2022/01/14 08:32:24;;;;;;;32.30;11.15;;;6.20;99.90;;;;;;5089710;28;20127;-80
2022/01/14 08:34:50;;;;;;;30.67;10.43;;;6.20;99.90;;;;;;5090036;28;20405;-79
2022/01/14 08:37:15;;;;;;;23.70;9.65;;;6.20;99.90;;;;;;5088528;28;20051;-78
2022/01/14 08:39:41;;;;;;;20.33;8.77;;;6.20;99.90;;;;;;5090337;28;20036;-79
2022/01/14 08:42:09;;;;;;;16.60;9.10;;;6.30;99.90;;;;;;5089745;28;20193;-80
2022/01/14 08:44:36;;;;;;;21.08;10.95;;;6.30;99.90;;;;;;5070971;28;20048;-80
2022/01/14 08:47:05;;;;;;;19.90;8.82;;;6.30;99.90;;;;;;5089517;28;20052;-78
2022/01/14 08:49:31;;;;;;;21.15;9.07;;;6.30;99.90;;;;;;5071158;28;20040;-81
2022/01/14 08:51:57;;;;;;;21.58;8.00;;;6.30;99.90;;;;;;5053531;28;20044;-79
2022/01/14 08:54:22;;;;;;;25.10;9.95;;;6.30;99.90;;;;;;5089257;28;20064;-79
2022/01/14 08:56:48;;;;;;;24.27;9.40;;;6.40;99.90;;;;;;5071366;28;20550;-78
2022/01/14 08:59:17;;;;;;;20.75;8.77;;;6.40;99.90;;;;;;5089309;28;20486;-75
2022/01/14 09:01:43;;;;;;;17.17;8.70;;;6.40;99.90;;;;;;5088805;28;20683;-80
2022/01/14 09:04:09;;;;;;;23.70;8.18;;;6.40;99.90;;;;;;5071761;28;20383;-79
2022/01/14 09:06:35;;;;;;;14.70;6.75;;;6.50;99.90;;;;;;5054012;28;20067;-79
2022/01/14 09:09:01;;;;;;;14.63;7.05;;;6.50;99.90;;;;;;5070054;28;20054;-78
2022/01/14 09:11:28;;;;;;;19.25;7.78;;;6.50;99.90;;;;;;5088685;28;20144;-78
2022/01/14 09:13:54;;;;;;;15.75;5.75;;;6.50;99.90;;;;;;5089154;28;20048;-78
2022/01/14 09:16:20;;;;;;;18.63;6.35;;;6.60;99.90;;;;;;5089158;28;20046;-79
2022/01/14 09:18:49;;;;;;;12.55;6.40;;;6.60;99.90;;;;;;5071058;28;20036;-80
2022/01/14 09:21:16;;;;;;;18.25;7.38;;;6.70;99.90;;;;;;5088780;28;20040;-79
2022/01/14 09:23:43;;;;;;;14.18;7.72;;;6.70;99.90;;;;;;5088277;28;20055;-78
2022/01/14 09:26:09;;;;;;;19.45;6.68;;;6.70;99.90;;;;;;5070561;28;20555;-78
2022/01/14 09:28:35;;;;;;;15.32;5.95;;;6.70;99.90;;;;;;5070437;28;20040;-79
2022/01/14 09:31:00;;;;;;;13.98;4.82;;;6.80;99.90;;;;;;5088802;28;20471;-79
2022/01/14 09:33:27;;;;;;;33.72;6.43;;;6.70;99.90;;;;;;5088300;28;20119;-78
2022/01/14 09:35:53;;;;;;;18.80;5.55;;;6.70;99.90;;;;;;5070396;28;20513;-78
2022/01/14 09:38:18;;;;;;;11.05;3.78;;;6.80;99.90;;;;;;5087301;28;20048;-78
2022/01/14 09:40:49;;;;;;;14.63;4.63;;;6.80;99.90;;;;;;5070756;28;20656;-77
2022/01/14 09:43:15;;;;;;;14.77;4.53;;;6.80;99.90;;;;;;5088095;28;20442;-78
2022/01/14 09:45:41;;;;;;;15.27;4.38;;;6.90;99.90;;;;;;5070316;28;20067;-79
2022/01/14 09:48:06;;;;;;;13.05;4.30;;;6.90;99.90;;;;;;5088225;28;20055;-80
2022/01/14 09:50:32;;;;;;;18.52;4.97;;;6.90;99.90;;;;;;5088206;28;20040;-79
2022/01/14 09:52:58;;;;;;;24.85;5.63;;;7.00;99.90;;;;;;5070964;28;20036;-80
2022/01/14 09:55:24;;;;;;;20.17;4.35;;;7.00;99.90;;;;;;5089664;28;20088;-79
2022/01/14 09:57:52;;;;;;;14.80;7.03;;;7.00;99.90;;;;;;5070181;28;20040;-80
2022/01/14 10:00:18;;;;;;;15.20;4.60;;;7.00;99.90;;;;;;5069974;28;20119;-78
2022/01/14 10:02:44;;;;;;;10.60;3.95;;;7.10;99.90;;;;;;5069894;28;20162;-78
2022/01/14 10:05:30;;;;;;;14.43;4.00;;;7.10;99.90;;;;;;5070658;28;20051;-78
2022/01/14 10:08:09;;;;;;;18.30;4.22;;;7.10;99.90;;;;;;5069040;28;20048;-78
2022/01/14 10:10:38;;;;;;;13.13;4.78;;;7.10;99.90;;;;;;5069476;28;20036;-78
2022/01/14 10:13:12;;;;;;;20.88;4.82;;;7.20;99.90;;;;;;5087504;28;20048;-79
2022/01/14 10:15:52;;;;;;;10.40;3.90;;;7.10;99.90;;;;;;5087316;28;20048;-79
2022/01/14 10:18:19;;;;;;;;;;;7.20;99.90;;;;;;5088179;28;20584;-80
2022/01/14 10:20:45;;;;;;;17.20;3.45;;;7.20;99.90;;;;;;5087855;28;19919;-80
2022/01/14 10:23:15;;;;;;;20.45;4.72;;;7.20;99.90;;;;;;5087081;28;20044;-79
2022/01/14 10:25:41;;;;;;;19.77;4.88;;;7.10;99.90;;;;;;5069783;28;20093;-80
2022/01/14 10:28:18;;;;;;;18.25;4.07;;;7.10;99.90;;;;;;5087753;28;20068;-79
2022/01/14 10:30:46;;;;;;;10.00;3.25;;;7.10;99.90;;;;;;5069368;28;20359;-78
2022/01/14 10:33:12;;;;;;;11.18;3.47;;;7.20;99.90;;;;;;5069799;28;20070;-78
2022/01/14 10:35:42;;;;;;;12.63;3.75;;;7.10;99.90;;;;;;5087377;28;20036;-78
2022/01/14 10:38:16;;;;;;;12.03;4.10;;;7.20;99.90;;;;;;5086509;28;20036;-78
2022/01/14 10:40:47;;;;;;;17.63;4.60;;;7.20;99.90;;;;;;5069673;28;20044;-78
2022/01/14 10:43:15;;;;;;;12.77;3.90;;;7.20;99.90;;;;;;5087735;28;20059;-78
2022/01/14 10:45:43;;;;;;;14.02;3.55;;;7.20;99.90;;;;;;5087386;28;20052;-79
2022/01/14 10:48:16;;;;;;;14.90;5.10;;;7.30;99.90;;;;;;5088061;28;20505;-79
2022/01/14 10:50:54;;;;;;;20.50;3.78;;;7.20;99.90;;;;;;5069333;28;20094;-79
2022/01/14 10:53:29;;;;;;;13.15;3.40;;;7.20;99.90;;;;;;5085931;28;20406;-79
2022/01/14 10:56:17;;;;;;;20.30;5.18;;;7.20;99.90;;;;;;5068738;28;20055;-79
2022/01/14 10:58:46;;;;;;;10.82;3.53;;;7.20;99.90;;;;;;5087082;28;20036;-78
2022/01/14 11:01:15;;;;;;;13.52;3.58;;;7.30;99.90;;;;;;5069069;28;20554;-79
2022/01/14 11:03:48;;;;;;;10.05;3.33;;;7.30;99.90;;;;;;5087477;28;20044;-80
2022/01/14 11:06:25;;;;;;;13.00;3.72;;;7.20;99.90;;;;;;5087016;28;20044;-76
2022/01/14 11:08:59;;;;;;;27.98;4.82;;;7.20;99.90;;;;;;5051654;28;20043;-79
2022/01/14 11:11:26;;;;;;;13.05;4.43;;;7.20;99.90;;;;;;5068537;28;20083;-80
2022/01/14 11:13:52;;;;;;;12.82;5.03;;;7.30;99.90;;;;;;5069123;28;20399;-79
2022/01/14 11:16:18;;;;;;;11.02;4.45;;;7.30;99.90;;;;;;5068753;28;20036;-79
2022/01/14 11:18:46;;;;;;;15.88;4.35;;;7.20;99.90;;;;;;5087139;28;20032;-75
2022/01/14 11:23:56;;;;;;;16.05;4.97;;;7.30;99.90;;;;;;5068886;28;20052;-79
2022/01/14 11:26:27;;;;;;;15.75;4.60;;;7.30;99.90;;;;;;5054676;28;20046;-79
2022/01/14 11:28:53;;;;;;;15.45;3.97;;;7.30;99.90;;;;;;5090999;28;20036;-79
2022/01/14 11:31:28;;;;;;;16.77;4.03;;;7.30;99.90;;;;;;5072353;28;20123;-79
2022/01/14 11:33:55;;;;;;;21.08;4.63;;;7.30;99.90;;;;;;5072698;28;20042;-79
2022/01/14 11:36:22;;;;;;;10.15;3.67;;;7.30;99.90;;;;;;5072193;28;20044;-76
2022/01/14 11:38:48;;;;;;;17.40;5.05;;;7.30;99.90;;;;;;5072462;28;20047;-79
2022/01/14 11:41:17;;;;;;;16.17;3.83;;;7.30;99.90;;;;;;5090526;28;20486;-78
2022/01/14 11:43:44;;;;;;;30.80;5.78;;;7.40;99.90;;;;;;5056547;28;20452;-80
2022/01/14 11:46:13;;;;;;;18.13;4.18;;;7.40;99.90;;;;;;5072715;28;20048;-80
2022/01/14 11:48:52;;;;;;;22.33;5.57;;;7.40;99.90;;;;;;5072756;28;20085;-80
2022/01/14 11:51:18;;;;;;;16.02;4.85;;;7.40;99.90;;;;;;5072081;28;20055;-73
2022/01/14 11:53:48;;;;;;;20.42;4.72;;;7.40;99.90;;;;;;5090071;28;20047;-79
2022/01/14 11:56:32;;;;;;;17.92;4.15;;;7.50;99.90;;;;;;5072176;28;20420;-76
2022/01/14 11:59:22;;;;;;;14.13;4.10;;;7.40;99.90;;;;;;5072125;28;20040;-79
2022/01/14 12:01:50;;;;;;;20.25;4.65;;;7.50;99.90;;;;;;5072352;28;20052;-79
2022/01/14 12:04:17;;;;;;;20.23;4.47;;;7.50;99.90;;;;;;5090434;28;20050;-78
2022/01/14 12:06:53;;;;;;;12.30;5.25;;;7.50;99.90;;;;;;5071582;28;20097;-79
2022/01/14 12:09:21;;;;;;;17.42;4.30;;;7.50;99.90;;;;;;5090198;28;20343;-79
2022/01/14 12:12:28;;;;;;;14.73;4.15;;;7.50;99.90;;;;;;5090015;28;20044;-82
2022/01/14 12:15:03;;;;;;;26.27;5.18;;;7.40;99.90;;;;;;5071880;28;20032;-79
2022/01/14 12:17:33;;;;;;;17.40;4.57;;;7.50;99.90;;;;;;5089896;28;20048;-78
2022/01/14 12:20:10;;;;;;;12.38;3.03;;;7.40;99.90;;;;;;5090103;28;20731;-79
2022/01/14 12:22:36;;;;;;;27.95;7.55;;;7.50;99.90;;;;;;5089003;28;20040;-79
2022/01/14 12:25:02;;;;;;;21.73;4.75;;;7.50;99.90;;;;;;5073462;28;20036;-78
2022/01/14 12:27:33;;;;;;;22.85;6.00;;;7.50;99.90;;;;;;5089874;28;20123;-79
2022/01/14 12:30:08;;;;;;;16.17;4.45;;;7.50;99.90;;;;;;5071795;28;20048;-78
2022/01/14 12:32:42;;;;;;;19.20;5.60;;;7.40;99.90;;;;;;5089293;28;20513;-78
2022/01/14 12:35:19;;;;;;;14.52;4.53;;;7.40;99.90;;;;;;5089962;28;20043;-80
2022/01/14 12:37:51;;;;;;;18.85;4.28;;;7.50;99.90;;;;;;5087804;28;20039;-77
2022/01/14 12:40:27;;;;;;;17.10;5.22;;;7.50;99.90;;;;;;5089700;28;20040;-78
2022/01/14 12:42:58;;;;;;;16.83;5.38;;;7.40;99.90;;;;;;5089789;28;20047;-79
2022/01/14 12:45:52;;;;;;;14.15;4.75;;;7.50;99.90;;;;;;5089102;28;20093;-78
2022/01/14 12:48:46;;;;;;;24.50;5.72;;;7.50;99.90;;;;;;5071421;28;20383;-80
2022/01/14 12:51:21;;;;;;;20.67;5.07;;;7.50;99.90;;;;;;5070564;28;20048;-78
2022/01/14 12:53:48;;;;;;;17.65;5.15;;;7.50;99.90;;;;;;5071687;28;20040;-78
2022/01/14 12:56:16;;;;;;;27.92;5.45;;;7.50;99.90;;;;;;5089262;28;20079;-79
2022/01/14 12:58:57;;;;;;;23.23;5.05;;;7.50;99.90;;;;;;5071528;28;20071;-79
2022/01/14 13:01:41;;;;;;;44.72;7.80;;;7.50;99.90;;;;;;5089057;28;20048;-78
2022/01/14 13:04:15;;;;;;;23.92;4.28;;;7.40;99.90;;;;;;5071576;28;20052;-80
2022/01/14 13:06:48;;;;;;;17.92;5.18;;;7.50;99.90;;;;;;5088599;28;20097;-80
2022/01/14 13:09:19;;;;;;;20.83;6.47;;;7.50;99.90;;;;;;5071130;28;20130;-75
2022/01/14 13:12:00;;;;;;;18.25;6.78;;;7.40;99.90;;;;;;5089226;28;20047;-79
2022/01/14 13:14:31;;;;;;;26.80;6.65;;;7.40;99.90;;;;;;5088774;28;20131;-79
2022/01/14 13:17:00;;;;;;;22.23;5.18;;;7.40;99.90;;;;;;5088750;28;20698;-79